createdAt,value
2022-11-16T00:02:13.152Z,100.00
2022-11-16T00:04:40.111Z,100.00
2022-11-16T00:07:06.688Z,100.00
2022-11-16T00:09:33.474Z,100.00
2022-11-16T00:12:02.257Z,100.00
2022-11-16T00:14:31.625Z,100.00
2022-11-16T00:16:58.669Z,100.00
2022-11-16T00:19:26.387Z,100.00
2022-11-16T00:21:53.368Z,100.00
2022-11-16T00:24:21.852Z,100.00
2022-11-16T00:26:48.994Z,100.00
2022-11-16T00:29:18.746Z,100.00
2022-11-16T00:31:46.032Z,100.00
2022-11-16T00:34:12.798Z,100.00
2022-11-16T00:36:39.448Z,100.00
2022-11-16T00:39:06.189Z,100.00
2022-11-16T00:41:32.957Z,100.00
2022-11-16T00:43:59.354Z,100.00
2022-11-16T00:46:25.764Z,100.00
2022-11-16T00:48:52.269Z,100.00
2022-11-16T00:51:18.620Z,100.00
2022-11-16T00:53:45.063Z,100.00
2022-11-16T00:56:11.631Z,100.00
2022-11-16T00:58:42.975Z,100.00
2022-11-16T01:01:11.623Z,100.00
2022-11-16T01:03:38.391Z,100.00
2022-11-16T01:06:11.780Z,100.00
2022-11-16T01:08:39.834Z,100.00
2022-11-16T01:11:26.088Z,100.00
2022-11-16T01:13:53.149Z,100.00
2022-11-16T01:16:22.697Z,100.00
2022-11-16T01:18:51.002Z,100.00
2022-11-16T01:21:18.320Z,100.00
2022-11-16T01:23:45.133Z,100.00
2022-11-16T01:26:12.014Z,100.00
2022-11-16T01:28:40.256Z,100.00
2022-11-16T01:31:09.183Z,100.00
2022-11-16T01:33:37.092Z,100.00
2022-11-16T01:36:14.164Z,100.00
2022-11-16T01:38:42.532Z,100.00
2022-11-16T01:41:14.163Z,100.00
2022-11-16T01:44:01.353Z,100.00
2022-11-16T01:46:37.176Z,100.00
2022-11-16T01:49:09.368Z,100.00
2022-11-16T01:51:37.880Z,100.00
2022-11-16T01:54:07.868Z,100.00
2022-11-16T01:56:39.156Z,100.00
2022-11-16T01:59:12.304Z,100.00
2022-11-16T02:01:39.076Z,100.00
2022-11-16T02:04:06.060Z,100.00
2022-11-16T02:06:58.228Z,100.00
2022-11-16T02:09:55.364Z,100.00
2022-11-16T02:12:47.520Z,100.00
2022-11-16T02:15:31.856Z,100.00
2022-11-16T02:18:35.579Z,100.00
2022-11-16T02:21:25.483Z,100.00
2022-11-16T02:23:57.895Z,100.00
2022-11-16T02:26:33.463Z,100.00
2022-11-16T02:29:42.896Z,100.00
2022-11-16T02:32:53.544Z,100.00
2022-11-16T02:35:27.253Z,100.00
2022-11-16T02:38:27.561Z,100.00
2022-11-16T02:41:01.534Z,100.00
2022-11-16T02:43:35.991Z,100.00
2022-11-16T02:46:08.444Z,100.00
2022-11-16T02:48:38.992Z,100.00
2022-11-16T02:51:08.102Z,100.00
2022-11-16T02:53:53.208Z,100.00
2022-11-16T02:56:20.157Z,100.00
2022-11-16T02:58:47.879Z,100.00
2022-11-16T03:01:25.168Z,100.00
2022-11-16T03:04:03.146Z,100.00
2022-11-16T03:06:33.248Z,100.00
2022-11-16T03:09:04.503Z,100.00
2022-11-16T03:11:53.638Z,100.00
2022-11-16T03:14:26.787Z,100.00
2022-11-16T03:16:57.528Z,100.00
2022-11-16T03:19:39.011Z,100.00
2022-11-16T03:22:31.159Z,100.00
2022-11-16T03:24:57.786Z,100.00
2022-11-16T03:27:37.562Z,100.00
2022-11-16T03:30:12.721Z,100.00
2022-11-16T03:32:51.506Z,100.00
2022-11-16T03:35:27.219Z,100.00
2022-11-16T03:37:57.878Z,100.00
2022-11-16T03:40:29.581Z,100.00
2022-11-16T03:42:58.795Z,100.00
2022-11-16T03:45:25.581Z,100.00
2022-11-16T03:47:53.445Z,100.00
2022-11-16T03:50:20.643Z,100.00
2022-11-16T03:52:47.151Z,100.00
2022-11-16T03:55:14.343Z,100.00
2022-11-16T03:57:43.015Z,100.00
2022-11-16T04:00:10.107Z,100.00
2022-11-16T04:02:43.731Z,100.00
2022-11-16T04:05:35.169Z,100.00
2022-11-16T04:08:20.349Z,100.00
2022-11-16T04:11:05.290Z,100.00
2022-11-16T04:13:53.842Z,100.00
2022-11-16T04:16:39.256Z,100.00
2022-11-16T04:19:27.277Z,100.00
2022-11-16T04:22:16.892Z,100.00
2022-11-16T04:24:48.853Z,100.00
2022-11-16T04:27:34.323Z,100.00
2022-11-16T04:30:04.537Z,100.00
2022-11-16T04:32:52.461Z,100.00
2022-11-16T04:35:48.121Z,100.00
2022-11-16T04:38:14.904Z,100.00
2022-11-16T04:40:41.267Z,100.00
2022-11-16T04:43:10.495Z,100.00
2022-11-16T04:45:58.603Z,100.00
2022-11-16T04:48:32.584Z,100.00
2022-11-16T04:50:59.304Z,100.00
2022-11-16T04:53:27.857Z,100.00
2022-11-16T04:56:02.327Z,100.00
2022-11-16T04:58:31.070Z,100.00
2022-11-16T05:00:59.943Z,100.00
2022-11-16T05:03:26.907Z,100.00
2022-11-16T05:05:53.327Z,100.00
2022-11-16T05:08:20.111Z,100.00
2022-11-16T05:10:50.950Z,100.00
2022-11-16T05:13:17.586Z,100.00
2022-11-16T05:15:47.230Z,100.00
2022-11-16T05:18:13.682Z,100.00
2022-11-16T05:20:58.821Z,100.00
2022-11-16T05:23:44.636Z,100.00
2022-11-16T05:26:13.811Z,100.00
2022-11-16T05:28:40.216Z,100.00
2022-11-16T05:31:09.139Z,100.00
2022-11-16T05:33:36.391Z,100.00
2022-11-16T05:36:04.201Z,100.00
2022-11-16T05:38:31.091Z,100.00
2022-11-16T05:40:59.610Z,100.00
2022-11-16T05:43:26.141Z,100.00
2022-11-16T05:46:00.916Z,100.00
2022-11-16T05:48:27.384Z,100.00
2022-11-16T05:51:01.066Z,100.00
2022-11-16T05:53:32.017Z,100.00
2022-11-16T05:55:58.600Z,100.00
2022-11-16T05:58:25.023Z,100.00
2022-11-16T06:00:51.518Z,100.00
2022-11-16T06:03:19.216Z,100.00
2022-11-16T06:05:45.660Z,100.00
2022-11-16T06:08:14.339Z,100.00
2022-11-16T06:10:40.996Z,100.00
2022-11-16T06:13:08.053Z,100.00
2022-11-16T06:15:37.354Z,100.00
2022-11-16T06:18:04.415Z,100.00
2022-11-16T06:20:30.875Z,100.00
2022-11-16T06:22:57.392Z,100.00
2022-11-16T06:25:24.499Z,100.00
2022-11-16T06:27:50.818Z,100.00
2022-11-16T06:30:18.582Z,100.00
2022-11-16T06:32:44.985Z,100.00
2022-11-16T06:35:11.509Z,100.00
2022-11-16T06:37:39.342Z,100.00
2022-11-16T06:40:07.573Z,100.00
2022-11-16T06:42:37.078Z,100.00
2022-11-16T06:45:03.772Z,100.00
2022-11-16T06:47:35.971Z,100.00
2022-11-16T06:50:02.805Z,100.00
2022-11-16T06:52:29.752Z,100.00
2022-11-16T06:54:56.199Z,100.00
2022-11-16T06:57:23.246Z,100.00
2022-11-16T06:59:50.937Z,100.00
2022-11-16T07:02:20.383Z,100.00
2022-11-16T07:04:48.831Z,100.00
2022-11-16T07:07:15.992Z,100.00
2022-11-16T07:09:44.436Z,100.00
2022-11-16T07:12:11.275Z,100.00
2022-11-16T07:14:39.949Z,100.00
2022-11-16T07:17:09.801Z,100.00
2022-11-16T07:19:36.922Z,100.00
2022-11-16T07:22:04.228Z,100.00
2022-11-16T07:24:31.229Z,100.00
2022-11-16T07:26:57.882Z,100.00
2022-11-16T07:29:26.624Z,100.00
2022-11-16T07:32:10.744Z,100.00
2022-11-16T07:34:58.946Z,100.00
2022-11-16T07:37:25.787Z,100.00
2022-11-16T07:39:53.741Z,100.00
2022-11-16T07:42:47.201Z,100.00
2022-11-16T07:45:31.511Z,100.00
2022-11-16T07:48:04.956Z,100.00
2022-11-16T07:50:50.502Z,99.68
2022-11-16T07:53:18.617Z,100.00
2022-11-16T07:55:51.431Z,100.00
2022-11-16T07:58:17.889Z,100.00
2022-11-16T08:00:45.217Z,99.53
2022-11-16T08:03:17.270Z,98.99
2022-11-16T08:05:48.228Z,99.50
2022-11-16T08:08:15.057Z,99.79
2022-11-16T08:10:42.124Z,100.00
2022-11-16T08:13:08.673Z,100.00
2022-11-16T08:15:36.351Z,100.00
2022-11-16T08:18:06.032Z,100.00
2022-11-16T08:20:34.780Z,99.59
2022-11-16T08:23:01.650Z,100.00
2022-11-16T08:25:32.215Z,100.00
2022-11-16T08:27:58.966Z,97.40
2022-11-16T08:30:26.083Z,100.00
2022-11-16T08:32:53.244Z,99.06
2022-11-16T08:35:19.798Z,99.15
2022-11-16T08:37:47.274Z,99.76
2022-11-16T08:40:15.144Z,100.00
2022-11-16T08:42:43.998Z,100.00
2022-11-16T08:45:11.481Z,100.00
2022-11-16T08:47:37.859Z,100.00
2022-11-16T08:50:06.439Z,100.00
2022-11-16T08:52:33.284Z,100.00
2022-11-16T08:55:00.807Z,100.00
2022-11-16T08:57:27.658Z,100.00
2022-11-16T08:59:58.195Z,99.42
2022-11-16T09:02:25.684Z,100.00
2022-11-16T09:04:53.058Z,100.00
2022-11-16T09:07:20.584Z,100.00
2022-11-16T09:09:47.062Z,100.00
2022-11-16T09:12:13.647Z,100.00
2022-11-16T09:14:40.222Z,99.73
2022-11-16T09:17:06.657Z,99.56
2022-11-16T09:19:33.138Z,100.00
2022-11-16T09:21:59.532Z,100.00
2022-11-16T09:24:26.225Z,100.00
2022-11-16T09:26:52.705Z,89.39
2022-11-16T09:29:19.072Z,86.34
2022-11-16T09:31:45.632Z,85.08
2022-11-16T09:34:12.141Z,87.23
2022-11-16T09:36:38.494Z,85.63
2022-11-16T09:42:14.381Z,84.02
2022-11-16T09:44:59.674Z,78.28
2022-11-16T09:47:44.762Z,78.61
2022-11-16T09:50:26.663Z,77.61
2022-11-16T09:52:57.642Z,77.64
2022-11-16T09:55:47.992Z,75.63
2022-11-16T09:58:43.457Z,73.51
2022-11-16T10:01:21.520Z,81.09
2022-11-16T10:03:53.875Z,77.85
2022-11-16T10:06:32.864Z,84.55
2022-11-16T10:08:59.325Z,84.59
2022-11-16T10:11:39.027Z,81.74
2022-11-16T10:14:39.708Z,79.81
2022-11-16T10:17:25.448Z,84.25
2022-11-16T10:19:56.192Z,80.60
2022-11-16T10:22:35.952Z,79.74
2022-11-16T10:25:20.994Z,82.45
2022-11-16T10:28:21.458Z,81.60
2022-11-16T10:31:04.512Z,81.40
2022-11-16T10:33:36.877Z,83.24
2022-11-16T10:36:12.929Z,79.87
2022-11-16T10:38:40.913Z,83.25
2022-11-16T10:41:32.056Z,86.68
2022-11-16T10:44:00.813Z,84.82
2022-11-16T10:46:38.059Z,76.18
2022-11-16T10:49:39.951Z,78.21
2022-11-16T10:52:06.797Z,72.59
2022-11-16T10:54:33.207Z,67.98
2022-11-16T10:57:05.571Z,67.05
2022-11-16T10:59:45.329Z,66.28
2022-11-16T11:02:31.922Z,66.26
2022-11-16T11:05:15.304Z,66.08
2022-11-16T11:07:48.572Z,67.72
2022-11-16T11:10:35.316Z,69.07
2022-11-16T11:13:05.421Z,69.24
2022-11-16T11:15:32.233Z,69.46
2022-11-16T11:18:19.523Z,69.14
2022-11-16T11:20:50.999Z,68.03
2022-11-16T11:23:22.204Z,66.05
2022-11-16T11:26:00.468Z,63.41
2022-11-16T11:28:31.659Z,62.16
2022-11-16T11:30:58.146Z,59.43
2022-11-16T11:33:25.630Z,59.76
2022-11-16T11:36:20.760Z,62.19
2022-11-16T11:39:00.047Z,62.41
2022-11-16T11:41:40.002Z,61.99
2022-11-16T11:44:16.502Z,59.96
2022-11-16T11:47:55.794Z,61.03
2022-11-16T11:50:36.870Z,61.62
2022-11-16T11:53:18.384Z,62.06
2022-11-16T11:55:45.055Z,61.23
2022-11-16T11:58:16.057Z,59.19
2022-11-16T12:01:25.311Z,56.05
2022-11-16T12:04:05.795Z,55.28
2022-11-16T12:07:08.382Z,59.16
2022-11-16T12:10:02.620Z,59.32
2022-11-16T12:12:39.523Z,57.98
2022-11-16T12:15:24.481Z,57.74
2022-11-16T12:18:28.720Z,60.26
2022-11-16T12:21:15.007Z,59.11
2022-11-16T12:24:10.012Z,59.65
2022-11-16T12:26:55.956Z,59.30
2022-11-16T12:29:31.940Z,59.70
2022-11-16T12:32:07.445Z,59.76
2022-11-16T12:34:47.693Z,60.04
2022-11-16T12:37:18.384Z,60.99
2022-11-16T12:39:54.238Z,60.74
2022-11-16T12:42:20.609Z,63.03
2022-11-16T12:45:14.668Z,61.67
2022-11-16T12:48:23.566Z,63.98
2022-11-16T12:51:30.496Z,63.93
2022-11-16T12:54:18.926Z,63.86
2022-11-16T12:57:22.713Z,61.68
2022-11-16T13:00:09.204Z,61.62
2022-11-16T13:02:54.010Z,61.61
2022-11-16T13:05:24.247Z,60.81
2022-11-16T13:08:02.236Z,60.88
2022-11-16T13:10:33.539Z,61.93
2022-11-16T13:15:53.631Z,65.45
2022-11-16T13:18:21.935Z,65.18
2022-11-16T13:21:00.460Z,64.10
2022-11-16T13:23:33.173Z,65.31
2022-11-16T13:26:31.325Z,64.02
2022-11-16T13:29:15.257Z,65.32
2022-11-16T13:32:19.374Z,63.00
2022-11-16T13:34:46.519Z,63.40
2022-11-16T13:37:47.143Z,63.12
2022-11-16T13:40:29.429Z,62.51
2022-11-16T13:43:04.821Z,59.60
2022-11-16T13:45:36.634Z,60.70
2022-11-16T13:48:15.313Z,61.08
2022-11-16T13:50:48.530Z,62.86
2022-11-16T13:56:10.282Z,66.22
2022-11-16T13:58:53.262Z,65.43
2022-11-16T14:02:01.820Z,65.82
2022-11-16T14:04:56.025Z,66.03
2022-11-16T14:07:32.207Z,74.76
2022-11-16T14:09:59.291Z,71.06
2022-11-16T14:12:38.043Z,68.21
2022-11-16T14:15:17.683Z,66.05
2022-11-16T14:17:57.764Z,65.72
2022-11-16T14:20:34.846Z,65.10
2022-11-16T14:23:21.041Z,64.61
2022-11-16T14:25:57.565Z,61.88
2022-11-16T14:28:36.070Z,63.36
2022-11-16T14:31:05.645Z,63.60
2022-11-16T14:33:35.048Z,63.70
2022-11-16T14:36:04.465Z,62.91
2022-11-16T14:38:36.811Z,63.67
2022-11-16T14:41:06.257Z,65.67
2022-11-16T14:43:42.476Z,65.35
2022-11-16T14:46:20.073Z,70.42
2022-11-16T14:48:47.377Z,69.23
2022-11-16T14:51:29.124Z,68.36
2022-11-16T14:54:11.337Z,74.06
2022-11-16T14:56:38.172Z,76.96
2022-11-16T14:59:04.583Z,78.54
2022-11-16T15:01:38.950Z,80.27
2022-11-16T15:04:10.914Z,78.09
2022-11-16T15:06:44.493Z,82.20
2022-11-16T15:09:19.676Z,84.14
2022-11-16T15:12:07.877Z,87.20
2022-11-16T15:14:48.568Z,89.84
2022-11-16T15:17:18.248Z,90.17
2022-11-16T15:19:56.557Z,90.57
2022-11-16T15:22:29.220Z,91.62
2022-11-16T15:24:58.636Z,93.17
2022-11-16T15:27:34.552Z,92.39
2022-11-16T15:30:13.674Z,93.26
2022-11-16T15:32:44.781Z,94.74
2022-11-16T15:35:28.805Z,95.60
2022-11-16T15:38:05.320Z,95.79
2022-11-16T15:40:33.926Z,96.50
2022-11-16T15:43:02.808Z,97.65
2022-11-16T15:45:30.509Z,98.83
2022-11-16T15:48:00.374Z,99.19
2022-11-16T15:50:27.209Z,100.00
2022-11-16T15:52:55.397Z,100.00
2022-11-16T15:55:35.782Z,100.00
2022-11-16T15:58:17.749Z,100.00
2022-11-16T16:00:48.034Z,100.00
2022-11-16T16:03:24.861Z,100.00
2022-11-16T16:05:51.890Z,100.00
2022-11-16T16:08:27.567Z,100.00
2022-11-16T16:11:03.813Z,100.00
2022-11-16T16:13:37.515Z,100.00
2022-11-16T16:16:38.331Z,100.00
2022-11-16T16:19:25.305Z,100.00
2022-11-16T16:21:52.076Z,100.00
2022-11-16T16:24:40.896Z,100.00
2022-11-16T16:27:27.221Z,100.00
2022-11-16T16:29:55.474Z,100.00
2022-11-16T16:32:31.107Z,100.00
2022-11-16T16:35:00.020Z,100.00
2022-11-16T16:37:28.424Z,100.00
2022-11-16T16:39:54.871Z,100.00
2022-11-16T16:42:21.464Z,100.00
2022-11-16T16:44:48.201Z,100.00
2022-11-16T16:47:16.411Z,100.00
2022-11-16T16:49:43.230Z,100.00
2022-11-16T16:52:12.572Z,100.00
2022-11-16T16:54:39.944Z,100.00
2022-11-16T16:57:06.451Z,100.00
2022-11-16T16:59:32.808Z,100.00
2022-11-16T17:01:59.756Z,100.00
2022-11-16T17:04:26.517Z,100.00
2022-11-16T17:06:54.018Z,100.00
2022-11-16T17:09:20.872Z,100.00
2022-11-16T17:11:48.327Z,100.00
2022-11-16T17:14:14.966Z,100.00
2022-11-16T17:16:41.330Z,100.00
2022-11-16T17:19:07.810Z,100.00
2022-11-16T17:21:34.489Z,100.00
2022-11-16T17:24:02.284Z,100.00
2022-11-16T17:26:29.455Z,100.00
2022-11-16T17:28:57.614Z,100.00
2022-11-16T17:31:25.716Z,100.00
2022-11-16T17:33:52.365Z,100.00
2022-11-16T17:36:19.009Z,100.00
2022-11-16T17:38:46.141Z,100.00
2022-11-16T17:41:23.054Z,100.00
2022-11-16T17:43:52.751Z,100.00
2022-11-16T17:46:21.276Z,100.00
2022-11-16T17:48:49.075Z,100.00
2022-11-16T17:51:19.921Z,100.00
2022-11-16T17:53:46.865Z,100.00
2022-11-16T17:56:15.530Z,100.00
2022-11-16T17:58:42.656Z,100.00
2022-11-16T18:01:09.338Z,100.00
2022-11-16T18:03:36.745Z,100.00
2022-11-16T18:06:07.006Z,100.00
2022-11-16T18:08:34.811Z,100.00
2022-11-16T18:11:05.215Z,100.00
2022-11-16T18:13:32.610Z,100.00
2022-11-16T18:16:07.795Z,100.00
2022-11-16T18:18:34.443Z,100.00
2022-11-16T18:21:01.219Z,100.00
2022-11-16T18:23:28.710Z,100.00
2022-11-16T18:25:55.864Z,100.00
2022-11-16T18:28:22.747Z,100.00
2022-11-16T18:30:49.312Z,100.00
2022-11-16T18:33:18.639Z,100.00
2022-11-16T18:35:45.091Z,100.00
2022-11-16T18:38:13.057Z,100.00
2022-11-16T18:40:40.265Z,100.00
2022-11-16T18:43:12.154Z,100.00
2022-11-16T18:45:38.795Z,100.00
2022-11-16T18:48:05.348Z,100.00
2022-11-16T18:50:32.072Z,100.00
2022-11-16T18:52:59.079Z,100.00
2022-11-16T18:55:26.016Z,100.00
2022-11-16T18:57:52.478Z,100.00
2022-11-16T19:00:20.258Z,100.00
2022-11-16T19:02:46.667Z,100.00
2022-11-16T19:05:13.238Z,100.00
2022-11-16T19:07:39.686Z,100.00
2022-11-16T19:10:08.285Z,100.00
2022-11-16T19:12:34.827Z,100.00
2022-11-16T19:15:01.973Z,100.00
2022-11-16T19:17:28.856Z,100.00
2022-11-16T19:19:55.316Z,100.00
2022-11-16T19:22:22.030Z,100.00
2022-11-16T19:24:48.561Z,100.00
2022-11-16T19:27:16.549Z,100.00
2022-11-16T19:29:43.078Z,100.00
2022-11-16T19:32:11.445Z,100.00
2022-11-16T19:34:38.592Z,100.00
2022-11-16T19:37:05.145Z,100.00
2022-11-16T19:39:31.650Z,100.00
2022-11-16T19:41:58.215Z,100.00
2022-11-16T19:44:24.625Z,100.00
2022-11-16T19:46:53.082Z,100.00
2022-11-16T19:49:21.639Z,100.00
2022-11-16T19:51:49.273Z,100.00
2022-11-16T19:54:15.939Z,100.00
2022-11-16T19:56:42.862Z,100.00
2022-11-16T19:59:10.157Z,100.00
2022-11-16T20:01:37.266Z,100.00
2022-11-16T20:04:04.540Z,100.00
2022-11-16T20:06:34.678Z,100.00
2022-11-16T20:09:08.653Z,100.00
2022-11-16T20:11:37.178Z,100.00
2022-11-16T20:14:07.082Z,100.00
2022-11-16T20:16:39.093Z,100.00
2022-11-16T20:19:09.796Z,100.00
2022-11-16T20:21:38.667Z,100.00
2022-11-16T20:24:07.372Z,100.00
2022-11-16T20:26:36.224Z,100.00
2022-11-16T20:29:03.267Z,100.00
2022-11-16T20:31:32.657Z,100.00
2022-11-16T20:34:01.660Z,100.00
2022-11-16T20:36:30.383Z,100.00
2022-11-16T20:38:58.235Z,100.00
2022-11-16T20:41:29.327Z,100.00
2022-11-16T20:43:58.013Z,100.00
2022-11-16T20:46:30.659Z,100.00
2022-11-16T20:49:00.267Z,100.00
2022-11-16T20:51:27.903Z,100.00
2022-11-16T20:53:54.709Z,100.00
2022-11-16T20:56:22.030Z,100.00
2022-11-16T20:58:49.252Z,100.00
2022-11-16T21:01:28.422Z,100.00
2022-11-16T21:03:56.197Z,100.00
2022-11-16T21:06:23.207Z,100.00
2022-11-16T21:08:49.655Z,100.00
2022-11-16T21:11:21.689Z,100.00
2022-11-16T21:14:07.392Z,100.00
2022-11-16T21:16:34.629Z,100.00
2022-11-16T21:19:01.595Z,100.00
2022-11-16T21:21:28.467Z,100.00
2022-11-16T21:23:55.310Z,100.00
2022-11-16T21:26:29.891Z,100.00
2022-11-16T21:28:57.334Z,100.00
2022-11-16T21:31:29.808Z,100.00
2022-11-16T21:33:57.138Z,100.00
2022-11-16T21:36:25.983Z,100.00
2022-11-16T21:38:53.350Z,100.00
2022-11-16T21:41:21.797Z,100.00
2022-11-16T21:43:48.296Z,100.00
2022-11-16T21:46:20.118Z,100.00
2022-11-16T21:48:48.032Z,100.00
2022-11-16T21:51:17.391Z,100.00
2022-11-16T21:53:44.339Z,100.00
2022-11-16T21:56:16.763Z,100.00
2022-11-16T21:58:43.645Z,100.00
2022-11-16T22:01:11.715Z,100.00
2022-11-16T22:03:38.941Z,100.00
2022-11-16T22:06:25.898Z,100.00
2022-11-16T22:08:52.691Z,100.00
2022-11-16T22:11:21.802Z,100.00
2022-11-16T22:13:49.603Z,100.00
2022-11-16T22:16:17.683Z,100.00
2022-11-16T22:18:44.238Z,100.00
2022-11-16T22:21:11.407Z,100.00
2022-11-16T22:23:38.581Z,100.00
2022-11-16T22:26:07.414Z,100.00
2022-11-16T22:28:34.583Z,100.00
2022-11-16T22:31:02.593Z,100.00
2022-11-16T22:33:29.775Z,100.00
2022-11-16T22:35:56.725Z,100.00
2022-11-16T22:38:23.354Z,100.00
2022-11-16T22:40:50.758Z,100.00
2022-11-16T22:43:18.342Z,100.00
2022-11-16T22:45:45.054Z,100.00
2022-11-16T22:48:11.699Z,100.00
2022-11-16T22:50:37.992Z,100.00
2022-11-16T22:53:04.568Z,100.00
2022-11-16T22:55:34.296Z,100.00
2022-11-16T22:58:00.780Z,100.00
2022-11-16T23:00:27.219Z,100.00
2022-11-16T23:02:53.686Z,100.00
2022-11-16T23:05:20.133Z,100.00
2022-11-16T23:07:46.623Z,100.00
2022-11-16T23:10:13.354Z,100.00
2022-11-16T23:12:58.266Z,100.00
2022-11-16T23:15:43.659Z,100.00
2022-11-16T23:18:10.080Z,100.00
2022-11-16T23:20:54.917Z,100.00
2022-11-16T23:23:39.900Z,100.00
2022-11-16T23:26:32.767Z,100.00
2022-11-16T23:29:01.030Z,100.00
2022-11-16T23:31:27.457Z,100.00
2022-11-16T23:33:53.884Z,100.00
2022-11-16T23:36:20.340Z,100.00
2022-11-16T23:38:46.748Z,100.00
2022-11-16T23:41:31.558Z,100.00
2022-11-16T23:43:57.970Z,100.00
2022-11-16T23:46:28.587Z,100.00
2022-11-16T23:48:55.105Z,100.00
2022-11-16T23:51:23.280Z,100.00
2022-11-16T23:53:51.753Z,100.00
2022-11-16T23:56:19.546Z,100.00
2022-11-16T23:58:46.373Z,100.00
